Time;durP1;ratioP1;P1;durP2;ratioP2;P2;SDS_P1;SDS_P2;PMS_P1;PMS_P2;Temp;Humidity;BMP_temperature;BMP_pressure;BME280_temperature;BME280_humidity;BME280_pressure;Samples;Min_cycle;Max_cycle;Signal;HPM_P1;HPM_P2
2023/01/28 00:00:28;;;;;;;13.80;12.50;;;4.80;99.90;;;;;;2108855;28;20022;-71
2023/01/28 00:01:29;;;;;;;12.35;11.15;;;4.80;99.90;;;;;;2107495;28;20111;-71
2023/01/28 00:02:30;;;;;;;13.57;11.68;;;4.80;99.90;;;;;;2110776;28;20074;-71
2023/01/28 00:03:31;;;;;;;14.02;12.68;;;4.70;99.90;;;;;;2102086;28;20755;-71
2023/01/28 00:04:31;;;;;;;14.27;12.52;;;4.70;99.90;;;;;;2107779;27;20391;-71
2023/01/28 00:05:32;;;;;;;13.57;11.63;;;4.70;99.90;;;;;;2107918;28;20062;-71
2023/01/28 00:06:32;;;;;;;12.45;11.15;;;4.70;99.90;;;;;;2106151;28;20498;-71
2023/01/28 00:07:33;;;;;;;14.20;11.77;;;4.70;99.90;;;;;;2109280;28;20034;-71
2023/01/28 00:08:33;;;;;;;13.95;11.15;;;4.70;99.90;;;;;;2108969;28;20030;-71
2023/01/28 00:09:34;;;;;;;14.18;12.45;;;4.70;99.90;;;;;;2106931;28;20028;-71
2023/01/28 00:10:38;;;;;;;12.55;11.27;;;4.70;99.90;;;;;;2112720;27;20522;-71
2023/01/28 00:11:38;;;;;;;15.18;13.57;;;4.70;99.90;;;;;;2098949;28;20032;-71
2023/01/28 00:12:39;;;;;;;15.57;14.02;;;4.70;99.90;;;;;;2106823;28;20038;-71
2023/01/28 00:13:40;;;;;;;16.65;14.80;;;4.70;99.90;;;;;;2107035;28;20028;-71
2023/01/28 00:14:41;;;;;;;17.90;16.02;;;4.70;99.90;;;;;;2109011;28;20032;-70
2023/01/28 00:15:41;;;;;;;17.65;15.85;;;4.70;99.90;;;;;;2107300;28;20101;-70
2023/01/28 00:16:42;;;;;;;16.60;15.02;;;4.70;99.90;;;;;;2107657;28;20035;-71
2023/01/28 00:17:42;;;;;;;18.13;16.25;;;4.70;99.90;;;;;;2106559;28;20497;-71
2023/01/28 00:18:43;;;;;;;17.98;16.20;;;4.70;99.90;;;;;;2106923;28;20020;-71
2023/01/28 00:19:44;;;;;;;17.58;15.82;;;4.70;99.90;;;;;;2106954;28;20108;-71
2023/01/28 00:20:55;;;;;;;15.73;14.23;;;4.70;99.90;;;;;;2106629;28;20024;-70
2023/01/28 00:21:56;;;;;;;14.77;13.35;;;4.70;99.90;;;;;;2107785;28;20020;-70
2023/01/28 00:22:56;;;;;;;15.98;14.10;;;4.70;99.90;;;;;;2106344;28;20020;-70
2023/01/28 00:23:57;;;;;;;14.50;13.10;;;4.70;99.90;;;;;;2107617;28;20092;-71
2023/01/28 00:24:58;;;;;;;14.27;12.75;;;4.70;99.90;;;;;;2108665;28;20048;-71
2023/01/28 00:25:59;;;;;;;14.13;12.75;;;4.70;99.90;;;;;;2106826;28;20023;-70
2023/01/28 00:27:00;;;;;;;13.38;12.18;;;4.70;99.90;;;;;;2105966;28;20035;-70
2023/01/28 00:28:00;;;;;;;15.07;13.48;;;4.70;99.90;;;;;;2109327;28;20023;-70
2023/01/28 00:29:01;;;;;;;14.65;13.25;;;4.70;99.90;;;;;;2111021;28;20032;-70
2023/01/28 00:30:02;;;;;;;14.75;13.23;;;4.70;99.90;;;;;;2108109;28;20106;-70
2023/01/28 00:31:26;;;;;;;17.45;15.75;;;4.70;99.90;;;;;;2108560;28;20019;-70
2023/01/28 00:32:26;;;;;;;16.83;15.35;;;4.70;99.90;;;;;;2108187;27;21848;-71
2023/01/28 00:33:28;;;;;;;17.75;16.15;;;4.70;99.90;;;;;;2106906;28;20062;-71
2023/01/28 00:34:28;;;;;;;17.10;15.57;;;4.70;99.90;;;;;;2110445;28;20053;-70
2023/01/28 00:35:29;;;;;;;15.25;13.82;;;4.70;99.90;;;;;;2110056;28;20027;-70
2023/01/28 00:36:29;;;;;;;14.55;13.18;;;4.70;99.90;;;;;;2107240;28;20071;-70
2023/01/28 00:37:30;;;;;;;12.85;11.35;;;4.70;99.90;;;;;;2107839;28;20042;-70
2023/01/28 00:38:31;;;;;;;12.30;10.90;;;4.80;99.90;;;;;;2108070;28;20043;-70
2023/01/28 00:39:31;;;;;;;12.57;11.27;;;4.70;99.90;;;;;;2106487;28;20134;-70
2023/01/28 00:40:32;;;;;;;11.15;9.95;;;4.70;99.90;;;;;;2105514;28;20039;-70
2023/01/28 00:41:32;;;;;;;10.50;9.60;;;4.80;99.90;;;;;;2106557;28;20055;-70
2023/01/28 00:42:33;;;;;;;9.50;8.60;;;4.80;99.90;;;;;;2107497;28;20016;-70
2023/01/28 00:43:34;;;;;;;9.35;8.30;;;4.80;99.90;;;;;;2107543;28;20023;-70
2023/01/28 00:44:35;;;;;;;8.43;7.13;;;4.80;99.90;;;;;;2107359;28;20031;-70
2023/01/28 00:45:36;;;;;;;8.38;7.05;;;4.80;99.90;;;;;;2108021;28;20131;-70
2023/01/28 00:46:36;;;;;;;8.32;7.45;;;4.80;99.90;;;;;;2107028;28;20400;-70
2023/01/28 00:47:37;;;;;;;8.45;7.63;;;4.80;99.90;;;;;;2107355;28;20608;-71
2023/01/28 00:48:39;;;;;;;9.77;8.88;;;4.80;99.90;;;;;;2107385;28;20099;-71
2023/01/28 00:49:40;;;;;;;10.85;9.43;;;4.80;99.90;;;;;;2106775;28;20019;-70
2023/01/28 00:50:40;;;;;;;12.05;10.68;;;4.80;99.90;;;;;;2106720;28;20450;-70
2023/01/28 00:51:41;;;;;;;11.73;10.60;;;4.70;99.90;;;;;;2105863;28;20032;-70
2023/01/28 00:52:41;;;;;;;12.20;11.00;;;4.70;99.90;;;;;;2107997;28;20063;-70
2023/01/28 00:53:42;;;;;;;13.75;12.35;;;4.70;99.90;;;;;;2107899;28;20032;-70
2023/01/28 00:54:43;;;;;;;14.40;12.90;;;4.70;99.90;;;;;;2106211;28;20050;-71
2023/01/28 00:55:43;;;;;;;14.32;12.52;;;4.70;99.90;;;;;;2107619;28;20460;-71
2023/01/28 00:56:44;;;;;;;12.63;11.48;;;4.70;99.90;;;;;;2107996;28;20104;-71
2023/01/28 00:57:44;;;;;;;11.70;10.60;;;4.70;99.90;;;;;;2107349;28;20035;-71
2023/01/28 00:58:46;;;;;;;12.23;10.90;;;4.60;99.90;;;;;;2107165;28;20035;-71
2023/01/28 00:59:46;;;;;;;13.48;12.00;;;4.70;99.90;;;;;;2108052;28;20028;-70
2023/01/28 01:00:47;;;;;;;12.68;11.48;;;4.70;99.90;;;;;;2107774;27;20063;-71
2023/01/28 01:01:47;;;;;;;11.98;10.75;;;4.60;99.90;;;;;;2108337;28;20560;-70
2023/01/28 01:02:48;;;;;;;10.43;9.43;;;4.60;99.90;;;;;;2105905;27;20752;-70
2023/01/28 01:03:56;;;;;;;10.40;9.43;;;4.70;99.90;;;;;;2104560;28;20022;-70
2023/01/28 01:05:00;;;;;;;11.18;9.48;;;4.60;99.90;;;;;;2107406;28;20019;-70
2023/01/28 01:06:00;;;;;;;11.63;9.77;;;4.70;99.90;;;;;;2099932;28;20069;-70
2023/01/28 01:07:01;;;;;;;10.52;9.52;;;4.70;99.90;;;;;;2108375;28;20024;-70
2023/01/28 01:08:02;;;;;;;10.32;9.10;;;4.70;99.90;;;;;;2107396;28;20081;-70
2023/01/28 01:09:04;;;;;;;9.77;8.77;;;4.70;99.90;;;;;;2106982;28;20716;-70
2023/01/28 01:10:05;;;;;;;9.40;8.40;;;4.70;99.90;;;;;;2105880;28;20028;-70
2023/01/28 01:11:07;;;;;;;9.75;8.75;;;4.70;99.90;;;;;;2104148;28;20868;-71
2023/01/28 01:12:08;;;;;;;11.45;9.30;;;4.70;99.90;;;;;;2105410;28;20028;-70
2023/01/28 01:13:09;;;;;;;10.07;9.18;;;4.70;99.90;;;;;;2107218;28;20020;-70
2023/01/28 01:14:09;;;;;;;11.52;10.55;;;4.70;99.90;;;;;;2105202;28;20098;-70
2023/01/28 01:15:10;;;;;;;12.18;10.98;;;4.70;99.90;;;;;;2106695;28;20038;-70
2023/01/28 01:16:15;;;;;;;11.80;10.60;;;4.70;99.90;;;;;;2106711;28;20375;-71
2023/01/28 01:17:16;;;;;;;13.10;11.77;;;4.70;99.90;;;;;;2106370;28;20016;-70
2023/01/28 01:18:17;;;;;;;12.30;11.20;;;4.70;99.90;;;;;;2106643;28;20016;-70
2023/01/28 01:19:18;;;;;;;9.85;9.10;;;4.70;99.90;;;;;;2107842;28;20012;-70
2023/01/28 01:20:24;;;;;;;10.60;9.57;;;4.70;99.90;;;;;;2105972;28;20482;-70
2023/01/28 01:21:28;;;;;;;9.30;8.50;;;4.70;99.90;;;;;;2106148;28;20701;-70
2023/01/28 01:22:30;;;;;;;11.20;8.25;;;4.70;99.90;;;;;;2105445;28;20023;-70
2023/01/28 01:23:30;;;;;;;8.50;7.85;;;4.70;99.90;;;;;;2106417;28;20115;-70
2023/01/28 01:24:32;;;;;;;9.15;8.27;;;4.70;99.90;;;;;;2107797;28;20032;-70
2023/01/28 01:25:33;;;;;;;9.63;7.72;;;4.70;99.90;;;;;;2110591;28;20022;-70
2023/01/28 01:26:33;;;;;;;7.88;7.18;;;4.70;99.90;;;;;;2103147;28;20021;-70
2023/01/28 01:27:35;;;;;;;8.82;7.60;;;4.70;99.90;;;;;;2112962;28;20600;-70
2023/01/28 01:28:36;;;;;;;9.18;8.27;;;4.70;99.90;;;;;;2108712;28;20036;-71
2023/01/28 01:29:37;;;;;;;8.88;7.75;;;4.70;99.90;;;;;;2108290;28;20034;-71
2023/01/28 01:30:38;;;;;;;7.78;7.07;;;4.70;99.90;;;;;;2106036;28;20051;-71
2023/01/28 01:31:39;;;;;;;7.85;7.15;;;4.70;99.90;;;;;;2107905;28;20092;-71
2023/01/28 01:32:40;;;;;;;8.52;7.63;;;4.70;99.90;;;;;;2105761;28;20110;-71
2023/01/28 01:33:43;;;;;;;8.63;7.75;;;4.70;99.90;;;;;;2107997;28;20493;-71
2023/01/28 01:34:44;;;;;;;9.55;8.30;;;4.70;99.90;;;;;;2107184;28;20035;-71
2023/01/28 01:35:53;;;;;;;9.23;7.50;;;4.70;99.90;;;;;;2105945;28;20015;-71
2023/01/28 01:36:54;;;;;;;8.75;7.93;;;4.70;99.90;;;;;;2105838;28;20044;-71
2023/01/28 01:37:54;;;;;;;8.85;8.00;;;4.70;99.90;;;;;;2105475;28;20024;-71
2023/01/28 01:38:55;;;;;;;9.27;8.38;;;4.70;99.90;;;;;;2106840;28;20028;-71
2023/01/28 01:39:56;;;;;;;9.35;8.52;;;4.70;99.90;;;;;;2105884;28;20112;-70
2023/01/28 01:41:00;;;;;;;8.38;7.57;;;4.70;99.90;;;;;;2106952;28;20019;-70
2023/01/28 01:42:01;;;;;;;8.85;8.07;;;4.70;99.90;;;;;;2108264;28;20103;-70
2023/01/28 01:43:14;;;;;;;9.38;8.48;;;4.70;99.90;;;;;;2107202;28;21038;-70
2023/01/28 01:44:58;;;;;;;10.10;9.20;;;4.70;99.90;;;;;;2106431;28;20034;-71
2023/01/28 01:46:00;;;;;;;9.05;8.15;;;4.70;99.90;;;;;;2107102;28;20043;-70
2023/01/28 01:47:01;;;;;;;9.27;8.30;;;4.70;99.90;;;;;;2108692;28;20459;-70
2023/01/28 01:48:08;;;;;;;9.52;8.55;;;4.70;99.90;;;;;;2107944;28;20368;-70
2023/01/28 01:49:15;;;;;;;10.13;8.63;;;4.70;99.90;;;;;;2106770;28;20039;-70
2023/01/28 01:50:38;;;;;;;9.80;8.75;;;4.60;99.90;;;;;;2106325;28;20062;-70
2023/01/28 01:51:39;;;;;;;9.70;8.70;;;4.60;99.90;;;;;;2106769;28;20027;-70
2023/01/28 01:52:42;;;;;;;12.88;9.10;;;4.60;99.90;;;;;;2107676;28;20028;-70
2023/01/28 01:53:46;;;;;;;10.73;9.20;;;4.60;99.90;;;;;;2108582;28;20077;-70
2023/01/28 01:54:51;;;;;;;12.52;11.43;;;4.60;99.90;;;;;;2107482;28;20067;-70
2023/01/28 01:55:57;;;;;;;12.85;11.65;;;4.60;99.90;;;;;;2108553;28;20669;-70
2023/01/28 01:56:59;;;;;;;14.93;13.43;;;4.60;99.90;;;;;;2108696;28;20038;-70
2023/01/28 01:58:05;;;;;;;15.18;13.80;;;4.60;99.90;;;;;;2106149;28;20664;-70
2023/01/28 01:59:11;;;;;;;15.52;13.95;;;4.60;99.90;;;;;;2106463;28;20031;-70
2023/01/28 02:00:12;;;;;;;16.30;14.57;;;4.50;99.90;;;;;;2105418;28;20020;-71
2023/01/28 02:01:13;;;;;;;17.15;15.43;;;4.50;99.90;;;;;;2108585;28;20024;-71
2023/01/28 02:02:13;;;;;;;16.45;14.85;;;4.50;99.90;;;;;;2107268;28;20020;-71
2023/01/28 02:03:18;;;;;;;15.48;13.95;;;4.50;99.90;;;;;;2107852;28;20407;-70
2023/01/28 02:04:24;;;;;;;12.75;11.55;;;4.50;99.90;;;;;;2107594;28;20856;-70
2023/01/28 02:05:24;;;;;;;9.40;8.50;;;4.50;99.90;;;;;;2106006;28;20107;-70
2023/01/28 02:06:26;;;;;;;10.05;8.85;;;4.50;99.90;;;;;;2105887;28;20035;-70
2023/01/28 02:07:27;;;;;;;9.43;8.10;;;4.50;99.90;;;;;;2106942;28;20024;-70
2023/01/28 02:08:27;;;;;;;8.38;7.57;;;4.50;99.90;;;;;;2107314;28;20060;-70
2023/01/28 02:09:37;;;;;;;9.77;7.75;;;4.50;99.90;;;;;;2107078;28;20027;-70
2023/01/28 02:10:38;;;;;;;8.95;8.15;;;4.50;99.90;;;;;;2107503;28;20376;-71
2023/01/28 02:11:38;;;;;;;7.82;7.13;;;4.50;99.90;;;;;;2107326;28;20070;-70
2023/01/28 02:12:46;;;;;;;7.40;6.78;;;4.50;99.90;;;;;;2106194;28;20080;-70
2023/01/28 02:13:51;;;;;;;7.15;6.45;;;4.40;99.90;;;;;;2107048;28;20634;-70
2023/01/28 02:15:07;;;;;;;8.02;7.35;;;4.50;99.90;;;;;;2106740;28;20051;-70
2023/01/28 02:16:09;;;;;;;7.22;5.78;;;4.50;99.90;;;;;;2106766;28;20122;-70
2023/01/28 02:17:10;;;;;;;6.75;6.00;;;4.40;99.90;;;;;;2106798;28;20025;-70
2023/01/28 02:18:11;;;;;;;6.75;6.07;;;4.40;99.90;;;;;;2106849;28;20623;-70
2023/01/28 02:19:11;;;;;;;6.95;5.85;;;4.40;99.90;;;;;;2107265;28;20662;-70
2023/01/28 02:20:20;;;;;;;7.05;6.30;;;4.50;99.90;;;;;;2104662;28;20585;-70
2023/01/28 02:21:39;;;;;;;6.72;6.13;;;4.40;99.90;;;;;;2107744;28;20110;-70
2023/01/28 02:22:54;;;;;;;8.07;6.63;;;4.40;99.90;;;;;;2107837;28;20024;-71
2023/01/28 02:24:36;;;;;;;7.43;6.80;;;4.40;99.90;;;;;;2106748;28;20063;-70
2023/01/28 02:26:04;;;;;;;7.18;5.50;;;4.40;99.90;;;;;;2103690;28;20036;-70
2023/01/28 02:27:18;;;;;;;6.50;5.60;;;4.30;99.90;;;;;;2105871;28;20023;-70
2023/01/28 02:28:50;;;;;;;7.30;5.55;;;4.30;99.90;;;;;;2106454;28;20130;-70
2023/01/28 02:30:18;;;;;;;6.15;5.60;;;4.30;99.90;;;;;;2107496;28;20103;-70
2023/01/28 02:31:28;;;;;;;6.30;5.70;;;4.30;99.90;;;;;;2107121;28;20024;-70
2023/01/28 02:32:55;;;;;;;6.43;5.93;;;4.30;99.90;;;;;;2107562;28;20036;-70
2023/01/28 02:34:15;;;;;;;5.68;5.20;;;4.30;99.90;;;;;;2107815;28;20032;-70
2023/01/28 02:35:38;;;;;;;6.15;5.65;;;4.30;99.90;;;;;;2107921;28;20169;-70
2023/01/28 02:36:50;;;;;;;6.72;6.13;;;4.20;99.90;;;;;;2104658;28;20093;-70
2023/01/28 02:38:07;;;;;;;6.45;5.95;;;4.20;99.90;;;;;;2107076;28;20020;-70
2023/01/28 02:39:14;;;;;;;7.05;6.40;;;4.20;99.90;;;;;;2106163;28;20028;-70
2023/01/28 02:40:23;;;;;;;6.50;5.97;;;4.20;99.90;;;;;;2105345;28;20038;-70
2023/01/28 02:41:30;;;;;;;5.88;5.38;;;4.20;99.90;;;;;;2105483;28;20016;-70
2023/01/28 02:42:35;;;;;;;6.70;6.10;;;4.20;99.90;;;;;;2106583;28;20035;-70
2023/01/28 02:43:46;;;;;;;6.15;5.65;;;4.20;99.90;;;;;;2106182;28;20792;-70
2023/01/28 02:44:46;;;;;;;6.55;5.95;;;4.20;99.90;;;;;;2107299;28;20042;-70
2023/01/28 02:48:29;;;;;;;6.70;6.10;;;4.20;99.90;;;;;;2105822;28;20048;-70
2023/01/28 02:49:39;;;;;;;7.10;6.50;;;4.20;99.90;;;;;;2106787;28;20447;-70
2023/01/28 02:51:00;;;;;;;6.82;6.20;;;4.20;99.90;;;;;;2108491;28;20030;-70
2023/01/28 02:54:01;;;;;;;7.50;6.72;;;4.20;99.90;;;;;;2109410;28;20488;-70
2023/01/28 02:55:34;;;;;;;8.30;7.40;;;4.10;99.90;;;;;;2106968;28;20019;-70
2023/01/28 02:56:53;;;;;;;8.10;7.40;;;4.10;99.90;;;;;;2107648;28;20032;-70
2023/01/28 02:58:06;;;;;;;7.78;7.07;;;4.10;99.90;;;;;;2107793;27;20135;-70
2023/01/28 02:59:32;;;;;;;8.30;7.53;;;4.10;99.90;;;;;;2109530;28;20118;-70
2023/01/28 03:00:38;;;;;;;8.52;7.75;;;4.10;99.90;;;;;;2110975;28;20055;-70
2023/01/28 03:01:46;;;;;;;7.82;7.13;;;4.10;99.90;;;;;;2109206;28;20027;-70
2023/01/28 03:03:06;;;;;;;8.40;7.60;;;4.10;99.90;;;;;;2108120;28;20496;-70
2023/01/28 03:04:17;;;;;;;7.50;6.88;;;4.20;99.90;;;;;;2108951;28;20073;-70
2023/01/28 03:05:21;;;;;;;9.45;8.05;;;4.20;99.90;;;;;;2108205;28;20042;-70
2023/01/28 03:06:31;;;;;;;8.23;7.40;;;4.20;99.90;;;;;;2107876;28;20034;-70
2023/01/28 03:07:36;;;;;;;9.73;7.50;;;4.20;99.90;;;;;;2106698;28;20020;-70
2023/01/28 03:10:15;;;;;;;8.60;7.80;;;4.20;99.90;;;;;;2107567;28;20036;-70
2023/01/28 03:37:01;;;;;;;8.70;8.00;;;4.00;99.90;;;;;;2106486;28;20031;-70
2023/01/28 03:38:17;;;;;;;9.35;7.78;;;4.00;99.90;;;;;;2107298;28;20048;-70
2023/01/28 03:39:22;;;;;;;8.07;7.47;;;4.00;99.90;;;;;;2107620;28;20035;-70
2023/01/28 03:40:23;;;;;;;7.38;6.78;;;4.10;99.90;;;;;;2106560;28;21221;-70
2023/01/28 03:41:25;;;;;;;8.10;7.40;;;4.10;99.90;;;;;;2106834;28;20450;-70
2023/01/28 03:42:26;;;;;;;7.28;6.57;;;4.10;99.90;;;;;;2108303;28;20456;-70
2023/01/28 03:43:28;;;;;;;8.00;7.28;;;4.10;99.90;;;;;;2108356;28;20051;-70
2023/01/28 03:45:51;;;;;;;10.20;7.88;;;4.10;99.90;;;;;;2108468;28;20019;-70
2023/01/28 03:46:51;;;;;;;8.48;7.68;;;4.10;99.90;;;;;;2107156;28;20111;-70
2023/01/28 03:47:52;;;;;;;8.40;7.78;;;4.10;99.90;;;;;;2105665;28;20035;-70
2023/01/28 03:48:53;;;;;;;8.50;7.72;;;4.10;99.90;;;;;;2107859;28;20191;-70
2023/01/28 03:49:58;;;;;;;8.50;7.80;;;4.20;99.90;;;;;;2106836;28;20036;-72
2023/01/28 03:51:01;;;;;;;8.70;7.93;;;4.20;99.90;;;;;;2109521;28;20028;-70
2023/01/28 03:52:02;;;;;;;7.80;7.18;;;4.20;99.90;;;;;;2106039;28;20031;-70
2023/01/28 03:53:11;;;;;;;10.40;8.23;;;4.20;99.90;;;;;;2107562;28;20133;-70
2023/01/28 03:54:12;;;;;;;10.10;9.07;;;4.20;99.90;;;;;;2107860;28;20835;-70
2023/01/28 03:55:13;;;;;;;9.52;8.63;;;4.20;99.90;;;;;;2109133;28;20376;-70
2023/01/28 03:56:18;;;;;;;9.57;8.68;;;4.20;99.90;;;;;;2108627;28;20057;-70
2023/01/28 03:57:21;;;;;;;7.65;6.95;;;4.20;99.90;;;;;;2107478;28;20036;-70
2023/01/28 03:58:45;;;;;;;10.65;8.13;;;4.20;99.90;;;;;;2107855;27;20901;-70
2023/01/28 03:59:48;;;;;;;8.13;7.32;;;4.20;99.90;;;;;;2106206;28;20028;-70
2023/01/28 04:00:49;;;;;;;8.75;8.00;;;4.20;99.90;;;;;;2108146;28;20027;-70
2023/01/28 04:01:50;;;;;;;8.55;7.93;;;4.20;99.90;;;;;;2109031;28;20020;-70
2023/01/28 04:02:50;;;;;;;8.95;8.00;;;4.20;99.90;;;;;;2108006;28;20046;-70
2023/01/28 04:03:51;;;;;;;8.52;7.82;;;4.20;99.90;;;;;;2108086;28;20039;-70
2023/01/28 04:04:51;;;;;;;8.18;7.53;;;4.10;99.90;;;;;;2104570;28;20139;-70
2023/01/28 04:06:01;;;;;;;9.55;8.65;;;4.10;99.90;;;;;;2109253;28;20019;-70
2023/01/28 04:07:01;;;;;;;9.45;8.55;;;4.20;99.90;;;;;;2108830;28;20065;-70
2023/01/28 04:08:02;;;;;;;9.63;8.35;;;4.10;99.90;;;;;;2106692;28;20100;-70
2023/01/28 04:09:04;;;;;;;9.45;8.55;;;4.10;99.90;;;;;;2107909;28;20467;-70
2023/01/28 04:10:07;;;;;;;9.02;8.23;;;4.10;99.90;;;;;;2106552;28;20131;-70
2023/01/28 04:11:18;;;;;;;9.52;8.68;;;4.10;99.90;;;;;;2107484;28;20023;-70
2023/01/28 04:12:19;;;;;;;9.45;8.60;;;4.10;99.90;;;;;;2111086;28;20102;-70
2023/01/28 04:13:20;;;;;;;9.20;8.32;;;4.10;99.90;;;;;;2109003;28;20515;-70
2023/01/28 04:14:20;;;;;;;10.40;9.07;;;4.10;99.90;;;;;;2108497;28;20710;-70
2023/01/28 04:15:22;;;;;;;9.85;8.98;;;4.10;99.90;;;;;;2108016;28;20044;-70
2023/01/28 04:16:23;;;;;;;8.90;8.10;;;4.10;99.90;;;;;;2105483;28;21011;-70
2023/01/28 04:17:23;;;;;;;10.00;9.13;;;4.10;99.90;;;;;;2104837;28;20031;-70
2023/01/28 04:18:26;;;;;;;10.25;9.50;;;4.10;99.90;;;;;;2106093;28;20036;-70
2023/01/28 04:19:27;;;;;;;9.85;9.02;;;4.10;99.90;;;;;;2114922;27;20092;-70
2023/01/28 04:20:28;;;;;;;9.85;8.95;;;4.10;99.90;;;;;;2114633;27;20043;-70
2023/01/28 04:21:28;;;;;;;10.05;9.15;;;4.10;99.90;;;;;;2109359;28;20019;-70
2023/01/28 04:22:29;;;;;;;9.45;8.43;;;4.10;99.90;;;;;;2107674;28;20039;-70
2023/01/28 04:23:29;;;;;;;9.30;8.40;;;4.10;99.90;;;;;;2107608;28;20035;-70
2023/01/28 04:24:30;;;;;;;8.85;8.05;;;4.10;99.90;;;;;;2106965;28;20166;-70
2023/01/28 04:25:31;;;;;;;9.00;8.10;;;4.10;99.90;;;;;;2108758;28;20031;-70
2023/01/28 04:26:31;;;;;;;8.60;7.90;;;4.20;99.90;;;;;;2108123;28;20020;-70
2023/01/28 04:27:32;;;;;;;8.95;8.20;;;4.20;99.90;;;;;;2108438;28;20028;-70
2023/01/28 04:28:33;;;;;;;8.55;7.78;;;4.20;99.90;;;;;;2105717;28;20027;-70
2023/01/28 04:29:33;;;;;;;8.82;8.13;;;4.20;99.90;;;;;;2106449;28;20038;-70
2023/01/28 04:30:34;;;;;;;8.32;7.65;;;4.20;99.90;;;;;;2108545;28;20095;-70
2023/01/28 04:31:34;;;;;;;8.60;8.00;;;4.20;99.90;;;;;;2107111;28;20053;-70
2023/01/28 04:32:35;;;;;;;8.55;7.95;;;4.20;99.90;;;;;;2107125;28;20035;-70
2023/01/28 04:33:35;;;;;;;7.85;7.22;;;4.20;99.90;;;;;;2106119;28;20111;-70
2023/01/28 04:34:36;;;;;;;8.00;7.40;;;4.20;99.90;;;;;;2107768;28;20012;-70
2023/01/28 04:35:36;;;;;;;8.75;8.00;;;4.20;99.90;;;;;;2105429;28;20036;-70
2023/01/28 04:36:37;;;;;;;7.97;7.38;;;4.20;99.90;;;;;;2107762;28;20365;-70
2023/01/28 04:37:40;;;;;;;9.18;8.35;;;4.20;99.90;;;;;;2108503;28;20027;-70
2023/01/28 04:38:40;;;;;;;8.20;7.50;;;4.20;99.90;;;;;;2106284;28;20020;-70
2023/01/28 04:39:41;;;;;;;9.57;8.00;;;4.20;99.90;;;;;;2106272;28;20064;-70
2023/01/28 04:40:41;;;;;;;8.35;7.65;;;4.20;99.90;;;;;;2106862;28;20028;-70
2023/01/28 04:41:42;;;;;;;8.13;7.32;;;4.20;99.90;;;;;;2108232;28;20115;-70
2023/01/28 04:42:51;;;;;;;7.60;6.90;;;4.20;99.90;;;;;;2108046;28;20023;-70
2023/01/28 04:43:51;;;;;;;7.30;6.70;;;4.10;99.90;;;;;;2107284;28;20373;-70
2023/01/28 04:44:52;;;;;;;8.60;7.90;;;4.10;99.90;;;;;;2108693;28;20070;-70
2023/01/28 04:45:52;;;;;;;8.63;7.82;;;4.10;99.90;;;;;;2106340;28;20023;-70
2023/01/28 04:46:53;;;;;;;7.80;7.03;;;4.10;99.90;;;;;;2107010;28;20028;-70
2023/01/28 04:47:53;;;;;;;7.82;7.13;;;4.10;99.90;;;;;;2106275;28;20024;-70
2023/01/28 04:48:54;;;;;;;6.97;6.47;;;4.10;99.90;;;;;;2106741;28;20667;-70
2023/01/28 04:49:54;;;;;;;7.68;6.97;;;4.10;99.90;;;;;;2106807;28;20407;-70
2023/01/28 04:50:55;;;;;;;7.90;7.28;;;4.10;99.90;;;;;;2106151;28;20115;-70
2023/01/28 04:51:56;;;;;;;8.48;7.63;;;4.10;99.90;;;;;;2107805;28;20046;-70
2023/01/28 04:52:56;;;;;;;7.95;7.25;;;4.10;99.90;;;;;;2108115;28;20056;-70
2023/01/28 04:53:57;;;;;;;7.63;7.10;;;4.10;99.90;;;;;;2107655;28;20061;-70
2023/01/28 04:54:59;;;;;;;7.45;6.85;;;4.10;99.90;;;;;;2107182;28;20040;-70
2023/01/28 04:56:00;;;;;;;8.00;7.30;;;4.10;99.90;;;;;;2107349;28;20445;-71
2023/01/28 04:57:01;;;;;;;8.38;7.65;;;4.10;99.90;;;;;;2106361;28;20031;-70
2023/01/28 04:58:02;;;;;;;7.80;7.20;;;4.10;99.90;;;;;;2108211;28;20823;-70
2023/01/28 04:59:02;;;;;;;8.25;7.47;;;4.10;99.90;;;;;;2109084;28;20031;-70
2023/01/28 05:00:04;;;;;;;8.40;7.70;;;4.10;99.90;;;;;;2107571;28;20100;-70
2023/01/28 05:01:04;;;;;;;7.63;7.03;;;4.00;99.90;;;;;;2108317;28;20039;-70
2023/01/28 05:02:05;;;;;;;8.18;7.38;;;4.10;99.90;;;;;;2110121;28;20051;-70
2023/01/28 05:03:05;;;;;;;7.80;7.00;;;4.00;99.90;;;;;;2107997;28;20081;-70
2023/01/28 05:04:06;;;;;;;7.93;7.22;;;4.00;99.90;;;;;;2107023;28;20030;-70
2023/01/28 05:05:09;;;;;;;8.35;7.55;;;4.00;99.90;;;;;;2108893;28;20020;-70
2023/01/28 05:06:10;;;;;;;8.73;6.97;;;4.00;99.90;;;;;;2108899;28;20024;-70
2023/01/28 05:07:10;;;;;;;7.82;7.15;;;4.00;99.90;;;;;;2110579;28;20023;-70
2023/01/28 05:08:11;;;;;;;7.75;6.93;;;4.00;99.90;;;;;;2109810;27;20016;-70
2023/01/28 05:09:12;;;;;;;7.93;6.72;;;4.00;99.90;;;;;;2106804;28;20769;-70
2023/01/28 05:10:12;;;;;;;7.38;6.68;;;4.00;99.90;;;;;;2106715;28;20113;-70
2023/01/28 05:11:13;;;;;;;7.38;6.72;;;4.00;99.90;;;;;;2104457;28;20016;-70
2023/01/28 05:12:13;;;;;;;6.85;6.30;;;4.00;99.90;;;;;;2106511;28;20043;-70
2023/01/28 05:13:14;;;;;;;6.95;6.35;;;4.00;99.90;;;;;;2107852;27;20027;-70
2023/01/28 05:14:14;;;;;;;7.13;6.53;;;4.00;99.90;;;;;;2106568;28;20027;-70
2023/01/28 05:15:16;;;;;;;7.28;6.68;;;4.00;99.90;;;;;;2106715;28;20120;-70
2023/01/28 05:16:16;;;;;;;7.03;6.40;;;4.00;99.90;;;;;;2106143;28;20082;-70
2023/01/28 05:17:17;;;;;;;6.72;6.22;;;4.00;99.90;;;;;;2108778;28;20024;-70
2023/01/28 05:18:17;;;;;;;6.95;6.35;;;4.00;99.90;;;;;;2110246;28;20478;-70
2023/01/28 05:19:18;;;;;;;7.63;7.03;;;4.00;99.90;;;;;;2106325;28;20028;-70
2023/01/28 05:20:18;;;;;;;8.00;7.30;;;4.00;99.90;;;;;;2104621;28;20047;-70
2023/01/28 05:21:19;;;;;;;7.75;7.00;;;4.00;99.90;;;;;;2108571;28;20035;-70
2023/01/28 05:22:20;;;;;;;7.07;6.53;;;4.00;99.90;;;;;;2106435;28;20024;-70
2023/01/28 05:23:20;;;;;;;7.82;7.10;;;4.00;99.90;;;;;;2107992;28;20023;-70
2023/01/28 05:24:21;;;;;;;8.40;7.28;;;4.00;99.90;;;;;;2107003;28;20032;-70
2023/01/28 05:25:21;;;;;;;7.43;6.82;;;4.00;99.90;;;;;;2107323;28;20042;-70
2023/01/28 05:26:22;;;;;;;7.65;6.97;;;4.00;99.90;;;;;;2105942;28;20035;-70
2023/01/28 05:27:22;;;;;;;7.65;7.07;;;4.00;99.90;;;;;;2108235;28;20423;-70
2023/01/28 05:28:23;;;;;;;7.53;6.80;;;4.00;99.90;;;;;;2108471;28;20054;-70
2023/01/28 05:29:23;;;;;;;7.35;6.82;;;4.00;99.90;;;;;;2107005;28;20067;-70
2023/01/28 05:30:24;;;;;;;7.40;6.80;;;4.00;99.90;;;;;;2106728;28;20028;-70
2023/01/28 05:31:25;;;;;;;7.93;7.13;;;4.00;99.90;;;;;;2107837;28;20043;-70
2023/01/28 05:32:25;;;;;;;7.80;7.20;;;4.00;99.90;;;;;;2107058;28;20020;-70
2023/01/28 05:33:26;;;;;;;8.05;7.30;;;4.00;99.90;;;;;;2106462;28;20040;-70
2023/01/28 05:34:26;;;;;;;9.30;8.40;;;4.00;99.90;;;;;;2106772;28;20055;-70
2023/01/28 05:35:27;;;;;;;8.50;7.68;;;4.00;99.90;;;;;;2106765;28;20145;-70
2023/01/28 05:36:27;;;;;;;9.50;8.60;;;4.00;99.90;;;;;;2108215;28;20042;-70
2023/01/28 05:37:28;;;;;;;9.32;8.63;;;3.90;99.90;;;;;;2105997;28;20032;-70
2023/01/28 05:38:28;;;;;;;10.13;8.88;;;3.90;99.90;;;;;;2107991;28;20027;-70
2023/01/28 05:39:30;;;;;;;8.43;7.75;;;3.90;99.90;;;;;;2108155;28;20489;-70
2023/01/28 05:40:30;;;;;;;8.30;7.40;;;3.90;99.90;;;;;;2107043;28;20658;-70
2023/01/28 05:41:31;;;;;;;9.32;8.00;;;3.90;99.90;;;;;;2108560;28;20131;-70
2023/01/28 05:42:31;;;;;;;9.32;7.88;;;3.90;99.90;;;;;;2107647;28;20028;-70
2023/01/28 05:43:32;;;;;;;8.27;7.57;;;3.90;99.90;;;;;;2105493;28;20031;-70
2023/01/28 05:44:32;;;;;;;8.88;8.07;;;3.90;99.90;;;;;;2107286;28;20031;-70
2023/01/28 05:45:33;;;;;;;9.07;8.38;;;4.00;99.90;;;;;;2105456;28;20414;-70
2023/01/28 05:46:34;;;;;;;9.02;8.27;;;3.90;99.90;;;;;;2105916;28;20116;-70
2023/01/28 05:47:34;;;;;;;9.30;8.27;;;3.90;99.90;;;;;;2107056;28;20027;-70
2023/01/28 05:48:35;;;;;;;8.27;7.68;;;4.00;99.90;;;;;;2108007;28;20027;-70
2023/01/28 05:49:35;;;;;;;9.02;8.23;;;3.90;99.90;;;;;;2106257;28;20073;-70
2023/01/28 05:50:36;;;;;;;9.45;8.20;;;4.00;99.90;;;;;;2107562;28;20098;-70
2023/01/28 05:51:38;;;;;;;9.02;8.32;;;4.00;99.90;;;;;;2106415;28;20516;-70
2023/01/28 05:52:38;;;;;;;8.77;7.95;;;4.00;99.90;;;;;;2108598;28;20049;-70
2023/01/28 05:53:39;;;;;;;8.90;8.15;;;3.90;99.90;;;;;;2106900;28;20491;-70
2023/01/28 05:54:39;;;;;;;8.35;7.68;;;3.90;99.90;;;;;;2107467;28;20042;-70
2023/01/28 05:55:40;;;;;;;8.88;8.23;;;3.90;99.90;;;;;;2109222;28;20039;-70
2023/01/28 05:56:40;;;;;;;8.70;7.85;;;3.90;99.90;;;;;;2106849;28;20028;-70
2023/01/28 05:57:43;;;;;;;9.00;8.20;;;3.90;99.90;;;;;;2104703;28;20024;-70
2023/01/28 05:58:43;;;;;;;9.02;8.25;;;3.90;99.90;;;;;;2110634;28;20031;-70
2023/01/28 05:59:44;;;;;;;9.38;8.48;;;3.90;99.90;;;;;;2108853;28;20058;-70
2023/01/28 06:00:45;;;;;;;8.25;7.55;;;3.90;99.90;;;;;;2106660;28;20036;-70
2023/01/28 06:01:45;;;;;;;7.90;7.28;;;3.90;99.90;;;;;;2106904;28;20184;-70
2023/01/28 06:02:46;;;;;;;8.25;7.63;;;3.90;99.90;;;;;;2105052;28;20031;-70
2023/01/28 06:03:46;;;;;;;9.07;8.27;;;3.90;99.90;;;;;;2110093;28;20034;-70
2023/01/28 06:04:47;;;;;;;9.02;8.13;;;3.90;99.90;;;;;;2108718;28;20036;-70
2023/01/28 06:05:47;;;;;;;9.20;8.30;;;3.90;99.90;;;;;;2106657;28;20028;-70